createdAt,value
2019-05-03T00:00:24.204Z,1007.17
2019-05-03T00:01:24.210Z,1007.22
2019-05-03T00:02:24.182Z,1007.16
2019-05-03T00:03:24.224Z,1007.23
2019-05-03T00:04:24.173Z,1007.19
2019-05-03T00:05:24.163Z,1007.20
2019-05-03T00:06:24.171Z,1007.20
2019-05-03T00:07:24.148Z,1007.20
2019-05-03T00:08:24.118Z,1007.20
2019-05-03T00:09:24.108Z,1007.21
2019-05-03T00:10:24.102Z,1007.25
2019-05-03T00:11:24.107Z,1007.28
2019-05-03T00:12:24.082Z,1007.26
2019-05-03T00:13:24.075Z,1007.29
2019-05-03T00:14:24.052Z,1007.30
2019-05-03T00:15:24.047Z,1007.27
2019-05-03T00:16:24.040Z,1007.27
2019-05-03T00:17:24.046Z,1007.28
2019-05-03T00:18:24.022Z,1007.34
2019-05-03T00:19:24.007Z,1007.30
2019-05-03T00:20:23.990Z,1007.33
2019-05-03T00:21:23.990Z,1007.23
2019-05-03T00:22:23.997Z,1007.27
2019-05-03T00:23:23.958Z,1007.27
2019-05-03T00:24:23.949Z,1007.25
2019-05-03T00:25:23.939Z,1007.31
2019-05-03T00:26:23.934Z,1007.30
2019-05-03T00:27:23.946Z,1007.27
2019-05-03T00:28:23.908Z,1007.27
2019-05-03T00:29:23.893Z,1007.29
2019-05-03T00:30:23.887Z,1007.29
2019-05-03T00:31:23.872Z,1007.23
2019-05-03T00:32:23.889Z,1007.30
2019-05-03T00:33:23.859Z,1007.25
2019-05-03T00:34:23.866Z,1007.24
2019-05-03T00:35:23.847Z,1007.27
2019-05-03T00:36:23.819Z,1007.28
2019-05-03T00:37:23.829Z,1007.28
2019-05-03T00:38:23.842Z,1007.28
2019-05-03T00:39:23.811Z,1007.24
2019-05-03T00:40:23.785Z,1007.27
2019-05-03T00:41:23.788Z,1007.29
2019-05-03T00:42:23.777Z,1007.35
2019-05-03T00:43:23.747Z,1007.29
2019-05-03T00:44:23.733Z,1007.30
2019-05-03T00:45:23.734Z,1007.35
2019-05-03T00:46:23.712Z,1007.31
2019-05-03T00:47:23.723Z,1007.32
2019-05-03T00:48:23.692Z,1007.27
2019-05-03T00:49:23.682Z,1007.31
2019-05-03T00:50:23.679Z,1007.28
2019-05-03T00:51:23.664Z,1007.29
2019-05-03T00:52:23.665Z,1007.28
2019-05-03T00:53:23.638Z,1007.30
2019-05-03T00:54:23.627Z,1007.27
2019-05-03T00:55:23.618Z,1007.24
2019-05-03T00:56:23.609Z,1007.26
2019-05-03T00:57:23.627Z,1007.21
2019-05-03T00:58:23.586Z,1007.28
2019-05-03T00:59:23.584Z,1007.30
2019-05-03T01:00:23.563Z,1007.25
2019-05-03T01:01:23.552Z,1007.25
2019-05-03T01:02:26.218Z,1007.30
2019-05-03T01:03:23.537Z,1007.33
2019-05-03T01:04:23.544Z,1007.28
2019-05-03T01:05:23.516Z,1007.27
2019-05-03T01:06:23.503Z,1007.33
2019-05-03T01:07:23.490Z,1007.31
2019-05-03T01:08:23.500Z,1007.29
2019-05-03T01:09:23.489Z,1007.26
2019-05-03T01:10:23.462Z,1007.27
2019-05-03T01:11:23.448Z,1007.25
2019-05-03T01:12:23.439Z,1007.30
2019-05-03T01:13:23.471Z,1007.30
2019-05-03T01:14:23.416Z,1007.30
2019-05-03T01:15:23.409Z,1007.28
2019-05-03T01:16:23.400Z,1007.29
2019-05-03T01:17:23.392Z,1007.26
2019-05-03T01:18:23.535Z,1007.28
2019-05-03T01:19:23.377Z,1007.25
2019-05-03T01:20:23.355Z,1007.28
2019-05-03T01:21:23.341Z,1007.26
2019-05-03T01:22:23.332Z,1007.29
2019-05-03T01:23:23.368Z,1007.31
2019-05-03T01:24:23.331Z,1007.24
2019-05-03T01:25:32.230Z,1007.31
2019-05-03T01:26:24.288Z,1007.26
2019-05-03T01:27:23.286Z,1007.24
2019-05-03T01:28:23.267Z,1007.28
2019-05-03T01:29:23.280Z,1007.24
2019-05-03T01:30:23.256Z,1007.30
2019-05-03T01:31:23.236Z,1007.31
2019-05-03T01:32:23.227Z,1007.28
2019-05-03T01:33:23.214Z,1007.34
2019-05-03T01:34:23.233Z,1007.32
2019-05-03T01:35:23.198Z,1007.30
2019-05-03T01:36:23.182Z,1007.37
2019-05-03T01:37:23.170Z,1007.35
2019-05-03T01:38:23.165Z,1007.34
2019-05-03T01:39:23.175Z,1007.35
2019-05-03T01:40:23.144Z,1007.43
2019-05-03T01:41:23.131Z,1007.35
2019-05-03T01:42:23.131Z,1007.35
2019-05-03T01:43:23.166Z,1007.39
2019-05-03T01:44:23.125Z,1007.38
2019-05-03T01:45:23.110Z,1007.40
2019-05-03T01:46:23.157Z,1007.42
2019-05-03T01:47:23.065Z,1007.41
2019-05-03T01:48:23.058Z,1007.49
2019-05-03T01:49:23.067Z,1007.45
2019-05-03T01:50:23.055Z,1007.40
2019-05-03T01:51:23.029Z,1007.43
2019-05-03T01:52:23.027Z,1007.37
2019-05-03T01:53:23.011Z,1007.40
2019-05-03T01:54:23.015Z,1007.36
2019-05-03T01:55:22.986Z,1007.36
2019-05-03T01:56:22.971Z,1007.39
2019-05-03T01:57:22.965Z,1007.38
2019-05-03T01:58:22.949Z,1007.41
2019-05-03T01:59:22.936Z,1007.45
2019-05-03T02:00:23.528Z,1007.42
2019-05-03T02:01:22.916Z,1007.42
2019-05-03T02:02:23.110Z,1007.44
2019-05-03T02:03:22.935Z,1007.47
2019-05-03T02:04:22.884Z,1007.47
2019-05-03T02:05:22.912Z,1007.51
2019-05-03T02:06:22.864Z,1007.52
2019-05-03T02:07:22.863Z,1007.50
2019-05-03T02:08:22.845Z,1007.48
2019-05-03T02:09:22.833Z,1007.48
2019-05-03T02:10:22.856Z,1007.49
2019-05-03T02:11:22.819Z,1007.43
2019-05-03T02:12:22.802Z,1007.48
2019-05-03T02:13:23.000Z,1007.51
2019-05-03T02:14:22.779Z,1007.50
2019-05-03T02:15:30.371Z,1007.50
2019-05-03T02:16:22.766Z,1007.50
2019-05-03T02:17:31.888Z,1007.54
2019-05-03T02:18:22.741Z,1007.52
2019-05-03T02:19:22.740Z,1007.55
2019-05-03T02:20:22.744Z,1007.55
2019-05-03T02:21:22.745Z,1007.54
2019-05-03T02:22:22.722Z,1007.58
2019-05-03T02:23:22.688Z,1007.49
2019-05-03T02:24:22.729Z,1007.58
2019-05-03T02:25:22.666Z,1007.54
2019-05-03T02:26:22.675Z,1007.60
2019-05-03T02:27:22.647Z,1007.55
2019-05-03T02:28:22.645Z,1007.54
2019-05-03T02:29:22.666Z,1007.59
2019-05-03T02:30:24.926Z,1007.62
2019-05-03T02:31:23.147Z,1007.58
2019-05-03T02:32:23.343Z,1007.61
2019-05-03T02:33:23.319Z,1007.64
2019-05-03T02:34:23.904Z,1007.58
2019-05-03T02:35:22.796Z,1007.58
2019-05-03T02:36:23.153Z,1007.59
2019-05-03T02:37:22.585Z,1007.57
2019-05-03T02:38:23.400Z,1007.57
2019-05-03T02:39:23.045Z,1007.58
2019-05-03T02:40:24.540Z,1007.59
2019-05-03T02:41:22.827Z,1007.56
2019-05-03T02:42:22.511Z,1007.59
2019-05-03T02:43:25.622Z,1007.60
2019-05-03T02:44:22.485Z,1007.62
2019-05-03T02:45:22.465Z,1007.63
2019-05-03T02:46:25.130Z,1007.72
2019-05-03T02:47:22.459Z,1007.68
2019-05-03T02:48:25.354Z,1007.71
2019-05-03T02:49:22.411Z,1007.78
2019-05-03T02:50:22.435Z,1007.76
2019-05-03T02:51:22.445Z,1007.74
2019-05-03T02:52:22.380Z,1007.78
2019-05-03T02:53:22.428Z,1007.77
2019-05-03T02:54:22.359Z,1007.74
2019-05-03T02:55:22.350Z,1007.72
2019-05-03T02:56:23.357Z,1007.80
2019-05-03T02:57:22.341Z,1007.70
2019-05-03T02:58:25.144Z,1007.74
2019-05-03T02:59:22.304Z,1007.75
2019-05-03T03:00:25.305Z,1007.73
2019-05-03T03:01:22.284Z,1007.76
2019-05-03T03:02:22.313Z,1007.78
2019-05-03T03:03:22.264Z,1007.71
2019-05-03T03:04:22.256Z,1007.78
2019-05-03T03:05:22.251Z,1007.78
2019-05-03T03:06:22.239Z,1007.81
2019-05-03T03:07:22.274Z,1007.76
2019-05-03T03:08:22.213Z,1007.79
2019-05-03T03:09:25.232Z,1007.80
2019-05-03T03:10:22.194Z,1007.82
2019-05-03T03:11:22.180Z,1007.78
2019-05-03T03:12:22.205Z,1007.77
2019-05-03T03:13:22.176Z,1007.84
2019-05-03T03:14:22.161Z,1007.83
2019-05-03T03:15:22.137Z,1007.84
2019-05-03T03:16:22.130Z,1007.83
2019-05-03T03:17:22.126Z,1007.81
2019-05-03T03:18:22.138Z,1007.83
2019-05-03T03:19:22.093Z,1007.85
2019-05-03T03:20:22.089Z,1007.87
2019-05-03T03:21:22.083Z,1007.83
2019-05-03T03:22:22.098Z,1007.87
2019-05-03T03:23:22.072Z,1007.91
2019-05-03T03:24:22.079Z,1007.87
2019-05-03T03:25:22.058Z,1007.84
2019-05-03T03:26:34.473Z,1007.86
2019-05-03T03:27:25.546Z,1007.86
2019-05-03T03:28:22.019Z,1007.84
2019-05-03T03:29:21.998Z,1007.89
2019-05-03T03:30:21.996Z,1007.86
2019-05-03T03:31:21.965Z,1007.91
2019-05-03T03:32:21.969Z,1007.90
2019-05-03T03:33:22.002Z,1007.90
2019-05-03T03:34:21.941Z,1007.83
2019-05-03T03:35:22.571Z,1007.86
2019-05-03T03:36:45.986Z,1007.79
2019-05-03T03:37:25.818Z,1007.84
2019-05-03T03:38:22.004Z,1007.84
2019-05-03T03:39:21.891Z,1007.86
2019-05-03T03:40:21.873Z,1007.85
2019-05-03T03:41:21.873Z,1007.81
2019-05-03T03:42:21.861Z,1007.87
2019-05-03T03:43:21.888Z,1007.83
2019-05-03T03:44:21.859Z,1007.84
2019-05-03T03:45:21.819Z,1007.82
2019-05-03T03:46:21.817Z,1007.84
2019-05-03T03:47:21.798Z,1007.89
2019-05-03T03:48:21.796Z,1007.90
2019-05-03T03:49:21.804Z,1007.89
2019-05-03T03:50:21.788Z,1007.87
2019-05-03T03:51:21.750Z,1007.86
2019-05-03T03:52:21.751Z,1007.85
2019-05-03T03:53:21.741Z,1007.87
2019-05-03T03:54:21.749Z,1007.90
2019-05-03T03:55:21.748Z,1007.88
2019-05-03T03:56:21.699Z,1007.90
2019-05-03T03:57:21.687Z,1007.88
2019-05-03T03:58:23.103Z,1007.87
2019-05-03T03:59:21.699Z,1007.93
2019-05-03T04:00:21.699Z,1008.00
2019-05-03T04:01:21.670Z,1008.03
2019-05-03T04:02:21.639Z,1008.02
2019-05-03T04:03:21.623Z,1008.04
2019-05-03T04:04:21.639Z,1008.07
2019-05-03T04:05:21.608Z,1008.04
2019-05-03T04:06:21.617Z,1008.08
2019-05-03T04:07:21.581Z,1008.08
2019-05-03T04:08:21.574Z,1008.09
2019-05-03T04:09:21.559Z,1008.09
2019-05-03T04:10:21.581Z,1008.06
2019-05-03T04:11:21.551Z,1008.07
2019-05-03T04:12:21.600Z,1008.03
2019-05-03T04:13:21.522Z,1008.11
2019-05-03T04:14:21.543Z,1008.01
2019-05-03T04:15:21.542Z,1008.08
2019-05-03T04:16:21.511Z,1008.06
2019-05-03T04:17:21.487Z,1008.09
2019-05-03T04:18:21.486Z,1008.09
2019-05-03T04:19:21.459Z,1008.06
2019-05-03T04:20:21.464Z,1008.12
2019-05-03T04:21:21.436Z,1008.12
2019-05-03T04:22:21.460Z,1008.14
2019-05-03T04:23:21.416Z,1008.09
2019-05-03T04:24:21.405Z,1008.15
2019-05-03T04:25:21.437Z,1008.13
2019-05-03T04:26:21.382Z,1008.12
2019-05-03T04:27:24.432Z,1008.18
2019-05-03T04:28:22.358Z,1008.24
2019-05-03T04:29:21.349Z,1008.23
2019-05-03T04:30:21.345Z,1008.29
2019-05-03T04:31:21.389Z,1008.34
2019-05-03T04:32:24.859Z,1008.32
2019-05-03T04:33:22.308Z,1008.30
2019-05-03T04:34:21.323Z,1008.34
2019-05-03T04:35:21.288Z,1008.37
2019-05-03T04:36:21.298Z,1008.36
2019-05-03T04:37:21.278Z,1008.40
2019-05-03T04:38:21.260Z,1008.46
2019-05-03T04:39:21.269Z,1008.41
2019-05-03T04:40:21.234Z,1008.48
2019-05-03T04:41:21.251Z,1008.47
2019-05-03T04:42:21.213Z,1008.46
2019-05-03T04:43:21.239Z,1008.50
2019-05-03T04:44:21.193Z,1008.47
2019-05-03T04:45:21.197Z,1008.53
2019-05-03T04:46:21.166Z,1008.46
2019-05-03T04:47:21.193Z,1008.46
2019-05-03T04:48:21.157Z,1008.51
2019-05-03T04:49:21.142Z,1008.54
2019-05-03T04:50:21.133Z,1008.54
2019-05-03T04:51:21.114Z,1008.50
2019-05-03T04:52:21.155Z,1008.54
2019-05-03T04:53:21.107Z,1008.61
2019-05-03T04:54:21.125Z,1008.59
2019-05-03T04:55:21.132Z,1008.59
2019-05-03T04:56:21.074Z,1008.60
2019-05-03T04:57:34.791Z,1008.63
2019-05-03T04:58:22.052Z,1008.57
2019-05-03T04:59:21.044Z,1008.66
2019-05-03T05:00:21.020Z,1008.65
2019-05-03T05:01:21.007Z,1008.61
2019-05-03T05:02:21.018Z,1008.60
2019-05-03T05:03:21.017Z,1008.62
2019-05-03T05:04:20.987Z,1008.69
2019-05-03T05:05:20.968Z,1008.70
2019-05-03T05:06:20.990Z,1008.69
2019-05-03T05:07:20.959Z,1008.72
2019-05-03T05:08:20.957Z,1008.68
2019-05-03T05:09:20.932Z,1008.69
2019-05-03T05:10:20.914Z,1008.80
2019-05-03T05:11:20.905Z,1008.76
2019-05-03T05:12:20.905Z,1008.80
2019-05-03T05:13:20.966Z,1008.80
2019-05-03T05:14:20.872Z,1008.80
2019-05-03T05:15:20.870Z,1008.76
2019-05-03T05:16:20.851Z,1008.83
2019-05-03T05:17:20.841Z,1008.82
2019-05-03T05:18:20.867Z,1008.85
2019-05-03T05:19:20.825Z,1008.85
2019-05-03T05:20:20.812Z,1008.86
2019-05-03T05:21:20.802Z,1008.87
2019-05-03T05:22:20.792Z,1008.90
2019-05-03T05:23:20.830Z,1008.85
2019-05-03T05:24:20.835Z,1008.91
2019-05-03T05:25:20.801Z,1008.93
2019-05-03T05:26:20.748Z,1008.97
2019-05-03T05:27:20.756Z,1008.92
2019-05-03T05:28:20.746Z,1008.95
2019-05-03T05:29:20.727Z,1009.02
2019-05-03T05:30:20.703Z,1008.99
2019-05-03T05:31:20.695Z,1008.99
2019-05-03T05:32:20.691Z,1008.96
2019-05-03T05:33:20.680Z,1008.97
2019-05-03T05:34:20.683Z,1009.03
2019-05-03T05:35:20.651Z,1009.04
2019-05-03T05:36:20.639Z,1009.06
2019-05-03T05:37:20.629Z,1009.10
2019-05-03T05:38:20.624Z,1009.06
2019-05-03T05:39:20.630Z,1009.06
2019-05-03T05:40:20.599Z,1009.10
2019-05-03T05:41:20.594Z,1009.12
2019-05-03T05:42:20.584Z,1009.10
2019-05-03T05:43:20.601Z,1009.13
2019-05-03T05:44:20.572Z,1009.10
2019-05-03T05:45:20.541Z,1009.13
2019-05-03T05:46:20.539Z,1009.22
2019-05-03T05:47:20.522Z,1009.14
2019-05-03T05:48:20.511Z,1009.14
2019-05-03T05:49:20.524Z,1009.19
2019-05-03T05:50:20.492Z,1009.21
2019-05-03T05:51:20.481Z,1009.25
2019-05-03T05:52:20.482Z,1009.20
2019-05-03T05:53:20.457Z,1009.25
2019-05-03T05:54:20.491Z,1009.25
2019-05-03T05:55:20.454Z,1009.28
2019-05-03T05:56:20.425Z,1009.29
2019-05-03T05:57:20.416Z,1009.35
2019-05-03T05:58:20.404Z,1009.32
2019-05-03T05:59:20.453Z,1009.34
2019-05-03T06:00:20.396Z,1009.34
2019-05-03T06:01:20.376Z,1009.35
2019-05-03T06:02:20.372Z,1009.34
2019-05-03T06:03:20.354Z,1009.36
2019-05-03T06:04:20.366Z,1009.35
2019-05-03T06:05:20.333Z,1009.31
2019-05-03T06:06:20.329Z,1009.28
2019-05-03T06:07:20.315Z,1009.28
2019-05-03T06:08:20.317Z,1009.30
2019-05-03T06:09:20.318Z,1009.30
2019-05-03T06:10:20.294Z,1009.33
2019-05-03T06:11:20.271Z,1009.29
2019-05-03T06:12:20.262Z,1009.35
2019-05-03T06:13:20.248Z,1009.35
2019-05-03T06:14:20.265Z,1009.38
2019-05-03T06:15:20.225Z,1009.42
2019-05-03T06:16:20.218Z,1009.40
2019-05-03T06:17:20.229Z,1009.35
2019-05-03T06:18:20.207Z,1009.40
2019-05-03T06:19:20.184Z,1009.41
2019-05-03T06:20:20.201Z,1009.43
2019-05-03T06:21:20.165Z,1009.44
2019-05-03T06:22:20.155Z,1009.41
2019-05-03T06:23:20.149Z,1009.42
2019-05-03T06:24:20.129Z,1009.44
2019-05-03T06:25:20.145Z,1009.43
2019-05-03T06:26:20.111Z,1009.48
2019-05-03T06:27:20.099Z,1009.47
2019-05-03T06:28:21.021Z,1009.47
2019-05-03T06:29:20.075Z,1009.48
2019-05-03T06:30:20.088Z,1009.47
2019-05-03T06:31:22.709Z,1009.50
2019-05-03T06:32:20.047Z,1009.50
2019-05-03T06:33:20.035Z,1009.43
2019-05-03T06:34:20.042Z,1009.44
2019-05-03T06:35:20.063Z,1009.48
2019-05-03T06:36:20.002Z,1009.46
2019-05-03T06:37:19.995Z,1009.49
2019-05-03T06:38:19.980Z,1009.52
2019-05-03T06:39:19.975Z,1009.47
2019-05-03T06:40:19.983Z,1009.46
2019-05-03T06:41:19.969Z,1009.43
2019-05-03T06:42:22.830Z,1009.46
2019-05-03T06:43:19.929Z,1009.51
2019-05-03T06:44:26.047Z,1009.49
2019-05-03T06:45:20.917Z,1009.50
2019-05-03T06:46:23.594Z,1009.46
2019-05-03T06:47:20.889Z,1009.48
2019-05-03T06:48:22.402Z,1009.51
2019-05-03T06:49:20.868Z,1009.50
2019-05-03T06:50:27.554Z,1009.57
2019-05-03T06:51:20.865Z,1009.54
2019-05-03T06:52:24.802Z,1009.52
2019-05-03T06:53:20.820Z,1009.51
2019-05-03T06:54:20.616Z,1009.50
2019-05-03T06:55:20.825Z,1009.55
2019-05-03T06:56:24.978Z,1009.50
2019-05-03T06:57:20.788Z,1009.45
2019-05-03T06:58:30.345Z,1009.46
2019-05-03T06:59:20.769Z,1009.47
2019-05-03T07:00:19.750Z,1009.51
2019-05-03T07:01:19.737Z,1009.54
2019-05-03T07:02:19.746Z,1009.45
2019-05-03T07:03:19.728Z,1009.51
2019-05-03T07:04:19.704Z,1009.47
2019-05-03T07:05:19.698Z,1009.45
2019-05-03T07:06:32.965Z,1009.48
2019-05-03T07:07:20.695Z,1009.49
2019-05-03T07:08:19.685Z,1009.48
2019-05-03T07:09:19.661Z,1009.53
2019-05-03T07:10:19.644Z,1009.54
2019-05-03T07:11:19.633Z,1009.56
2019-05-03T07:12:19.650Z,1009.60
2019-05-03T07:13:27.186Z,1009.56
2019-05-03T07:14:19.598Z,1009.60
2019-05-03T07:15:27.135Z,1009.62
2019-05-03T07:16:19.596Z,1009.58
2019-05-03T07:17:19.566Z,1009.56
2019-05-03T07:18:19.580Z,1009.55
2019-05-03T07:19:19.547Z,1009.50
2019-05-03T07:20:19.539Z,1009.54
2019-05-03T07:21:19.525Z,1009.53
2019-05-03T07:22:19.525Z,1009.52
2019-05-03T07:23:19.523Z,1009.48
2019-05-03T07:24:19.493Z,1009.51
2019-05-03T07:25:19.482Z,1009.48
2019-05-03T07:26:19.472Z,1009.50
2019-05-03T07:27:19.474Z,1009.55
2019-05-03T07:28:19.468Z,1009.52
2019-05-03T07:29:19.441Z,1009.54
2019-05-03T07:30:19.432Z,1009.53
2019-05-03T07:31:19.419Z,1009.46
2019-05-03T07:32:19.410Z,1009.47
2019-05-03T07:33:19.422Z,1009.50
2019-05-03T07:34:19.387Z,1009.51
2019-05-03T07:35:19.386Z,1009.48
2019-05-03T07:36:19.368Z,1009.43
2019-05-03T07:37:19.363Z,1009.42
2019-05-03T07:38:19.371Z,1009.47
2019-05-03T07:39:19.369Z,1009.48
2019-05-03T07:40:19.329Z,1009.43
2019-05-03T07:41:19.319Z,1009.50
2019-05-03T07:42:19.351Z,1009.44
2019-05-03T07:43:19.370Z,1009.43
2019-05-03T07:44:19.287Z,1009.40
2019-05-03T07:45:19.280Z,1009.42
2019-05-03T07:46:19.267Z,1009.47
2019-05-03T07:47:19.284Z,1009.45
2019-05-03T07:48:19.271Z,1009.43
2019-05-03T07:49:19.257Z,1009.36
2019-05-03T07:50:19.226Z,1009.40
2019-05-03T07:51:19.217Z,1009.39
2019-05-03T07:52:19.257Z,1009.35
2019-05-03T07:53:19.216Z,1009.33
2019-05-03T07:54:19.176Z,1009.31
2019-05-03T07:55:19.166Z,1009.30
2019-05-03T07:56:19.161Z,1009.33
2019-05-03T07:57:19.158Z,1009.35
2019-05-03T07:58:19.135Z,1009.29
2019-05-03T07:59:19.142Z,1009.33
2019-05-03T08:00:19.110Z,1009.32
2019-05-03T08:01:19.105Z,1009.35
2019-05-03T08:02:19.093Z,1009.29
2019-05-03T08:03:19.108Z,1009.30
2019-05-03T08:04:19.110Z,1009.35
2019-05-03T08:05:19.060Z,1009.35
2019-05-03T08:06:19.047Z,1009.32
2019-05-03T08:07:22.388Z,1009.32
2019-05-03T08:08:19.030Z,1009.34
2019-05-03T08:09:19.035Z,1009.34
2019-05-03T08:10:19.022Z,1009.32
2019-05-03T08:11:19.001Z,1009.30
2019-05-03T08:12:18.988Z,1009.32
2019-05-03T08:13:18.973Z,1009.32
2019-05-03T08:14:18.984Z,1009.36
2019-05-03T08:15:18.952Z,1009.37
2019-05-03T08:16:18.940Z,1009.39
2019-05-03T08:17:18.930Z,1009.42
2019-05-03T08:18:18.929Z,1009.40
2019-05-03T08:19:18.929Z,1009.43
2019-05-03T08:20:18.897Z,1009.39
2019-05-03T08:21:18.892Z,1009.41
2019-05-03T08:22:18.880Z,1009.40
2019-05-03T08:23:27.463Z,1009.39
2019-05-03T08:24:19.881Z,1009.34
2019-05-03T08:25:18.852Z,1009.38
2019-05-03T08:26:18.837Z,1009.42
2019-05-03T08:27:18.829Z,1009.43
2019-05-03T08:28:18.815Z,1009.40
2019-05-03T08:29:19.660Z,1009.43
2019-05-03T08:30:18.798Z,1009.41
2019-05-03T08:31:18.783Z,1009.39
2019-05-03T08:32:18.775Z,1009.41
2019-05-03T08:33:18.758Z,1009.43
2019-05-03T08:34:18.776Z,1009.38
2019-05-03T08:35:18.757Z,1009.40
2019-05-03T08:36:18.733Z,1009.43
2019-05-03T08:37:18.717Z,1009.40
2019-05-03T08:38:18.706Z,1009.40
2019-05-03T08:39:18.714Z,1009.36
2019-05-03T08:40:18.688Z,1009.40
2019-05-03T08:41:18.688Z,1009.42
2019-05-03T08:42:18.667Z,1009.46
2019-05-03T08:43:18.684Z,1009.43
2019-05-03T08:44:18.684Z,1009.41
2019-05-03T08:45:18.643Z,1009.41
2019-05-03T08:46:18.627Z,1009.39
2019-05-03T08:47:18.617Z,1009.43
2019-05-03T08:48:18.599Z,1009.44
2019-05-03T08:49:18.596Z,1009.43
2019-05-03T08:50:21.348Z,1009.44
2019-05-03T08:51:18.590Z,1009.42
2019-05-03T08:52:18.555Z,1009.45
2019-05-03T08:53:18.551Z,1009.43
2019-05-03T08:54:18.536Z,1009.48
2019-05-03T08:55:18.548Z,1009.43
2019-05-03T08:56:18.522Z,1009.48
2019-05-03T08:57:18.556Z,1009.44
2019-05-03T08:58:18.497Z,1009.50
2019-05-03T08:59:28.788Z,1009.47
2019-05-03T09:01:28.232Z,1009.47
2019-05-03T09:02:28.202Z,1009.51
2019-05-03T09:03:28.192Z,1009.48
2019-05-03T09:04:37.205Z,1009.44
2019-05-03T09:05:29.194Z,1009.42
2019-05-03T09:06:28.159Z,1009.42
2019-05-03T09:07:28.155Z,1009.40
2019-05-03T09:08:28.137Z,1009.34
2019-05-03T09:09:28.132Z,1009.35
2019-05-03T09:10:28.135Z,1009.36
2019-05-03T09:11:33.685Z,1009.34
2019-05-03T09:12:29.095Z,1009.36
2019-05-03T09:13:28.086Z,1009.34
2019-05-03T09:14:38.799Z,1009.36
2019-05-03T09:15:29.083Z,1009.33
2019-05-03T09:16:28.052Z,1009.32
2019-05-03T09:17:28.041Z,1009.31
2019-05-03T09:18:28.034Z,1009.31
2019-05-03T09:19:28.028Z,1009.33
2019-05-03T09:20:28.033Z,1009.36
2019-05-03T09:21:27.998Z,1009.32
2019-05-03T09:22:28.002Z,1009.31
2019-05-03T09:23:27.994Z,1009.30
2019-05-03T09:24:27.967Z,1009.29
2019-05-03T09:25:27.981Z,1009.32
2019-05-03T09:26:29.481Z,1009.26
2019-05-03T09:27:27.936Z,1009.28
2019-05-03T09:28:29.264Z,1009.28
2019-05-03T09:29:40.284Z,1009.25
2019-05-03T09:30:28.928Z,1009.30
2019-05-03T09:31:27.895Z,1009.25
2019-05-03T09:32:27.883Z,1009.27
2019-05-03T09:33:27.875Z,1009.21
2019-05-03T09:34:27.861Z,1009.24
2019-05-03T09:35:32.779Z,1009.21
2019-05-03T09:36:28.860Z,1009.26
2019-05-03T09:37:27.833Z,1009.23
2019-05-03T09:38:27.819Z,1009.20
2019-05-03T09:39:27.810Z,1009.19
2019-05-03T09:40:27.801Z,1009.22
2019-05-03T09:41:27.842Z,1009.20
2019-05-03T09:42:27.781Z,1009.20
2019-05-03T09:43:27.786Z,1009.11
2019-05-03T09:44:27.775Z,1009.13
2019-05-03T09:45:27.746Z,1009.10
2019-05-03T09:46:27.760Z,1009.17
2019-05-03T09:47:27.726Z,1008.99
2019-05-03T09:48:27.713Z,1009.06
2019-05-03T09:49:27.715Z,1009.07
2019-05-03T09:50:27.717Z,1009.01
2019-05-03T09:51:27.683Z,1009.00
2019-05-03T09:52:27.696Z,1009.05
2019-05-03T09:53:27.663Z,1009.11
2019-05-03T09:54:27.650Z,1009.11
2019-05-03T09:55:27.642Z,1009.03
2019-05-03T09:56:27.642Z,1009.07
2019-05-03T09:57:27.643Z,1009.03
2019-05-03T09:58:27.610Z,1009.04
2019-05-03T09:59:27.603Z,1009.10
2019-05-03T10:00:27.589Z,1009.08
2019-05-03T10:01:27.579Z,1009.03
2019-05-03T10:02:27.590Z,1009.08
2019-05-03T10:03:27.556Z,1009.08
2019-05-03T10:04:27.553Z,1009.07
2019-05-03T10:05:27.539Z,1009.04
2019-05-03T10:06:27.539Z,1009.02
2019-05-03T10:07:27.518Z,1009.00
2019-05-03T10:08:27.525Z,1009.03
2019-05-03T10:09:27.514Z,1008.97
2019-05-03T10:10:27.493Z,1009.01
2019-05-03T10:11:27.470Z,1008.97
2019-05-03T10:12:27.463Z,1008.94
2019-05-03T10:13:27.505Z,1008.98
2019-05-03T10:14:27.439Z,1008.92
2019-05-03T10:15:27.434Z,1008.94
2019-05-03T10:16:27.418Z,1008.93
2019-05-03T10:17:27.407Z,1008.87
2019-05-03T10:18:27.419Z,1008.95
2019-05-03T10:19:37.148Z,1008.94
2019-05-03T10:20:28.377Z,1008.97
2019-05-03T10:21:27.365Z,1009.00
2019-05-03T10:22:27.356Z,1008.96
2019-05-03T10:23:27.367Z,1008.95
2019-05-03T10:24:27.336Z,1008.94
2019-05-03T10:25:27.331Z,1008.90
2019-05-03T10:26:27.312Z,1008.97
2019-05-03T10:27:27.304Z,1008.97
2019-05-03T10:28:27.331Z,1008.94
2019-05-03T10:29:27.282Z,1008.88
2019-05-03T10:30:27.274Z,1008.88
2019-05-03T10:31:27.262Z,1008.89
2019-05-03T10:32:27.251Z,1008.87
2019-05-03T10:33:27.241Z,1008.78
2019-05-03T10:34:27.251Z,1008.80
2019-05-03T10:35:27.228Z,1008.79
2019-05-03T10:36:27.207Z,1008.81
2019-05-03T10:37:27.197Z,1008.77
2019-05-03T10:38:27.185Z,1008.75
2019-05-03T10:39:27.216Z,1008.79
2019-05-03T10:40:27.173Z,1008.79
2019-05-03T10:41:27.160Z,1008.87
2019-05-03T10:42:27.141Z,1008.85
2019-05-03T10:43:27.134Z,1008.83
2019-05-03T10:44:27.140Z,1008.88
2019-05-03T10:45:28.116Z,1008.89
2019-05-03T10:46:27.109Z,1008.91
2019-05-03T10:47:27.091Z,1008.92
2019-05-03T10:48:27.081Z,1008.91
2019-05-03T10:49:27.089Z,1008.90
2019-05-03T10:50:27.060Z,1008.97
2019-05-03T10:51:27.083Z,1008.92
2019-05-03T10:52:27.045Z,1008.90
2019-05-03T10:53:27.025Z,1008.88
2019-05-03T10:54:27.032Z,1008.90
2019-05-03T10:55:27.003Z,1008.86
2019-05-03T10:56:27.004Z,1008.91
2019-05-03T10:57:26.984Z,1008.82
2019-05-03T10:58:26.974Z,1008.85
2019-05-03T10:59:26.980Z,1008.85
2019-05-03T11:00:50.314Z,1008.89
2019-05-03T11:01:27.940Z,1008.91
2019-05-03T11:02:26.930Z,1008.88
2019-05-03T11:03:26.919Z,1008.86
2019-05-03T11:04:26.960Z,1008.89
2019-05-03T11:05:26.907Z,1008.85
2019-05-03T11:06:26.894Z,1008.81
2019-05-03T11:07:26.879Z,1008.81
2019-05-03T11:08:26.867Z,1008.84
2019-05-03T11:09:26.860Z,1008.87
2019-05-03T11:10:26.865Z,1008.89
2019-05-03T11:11:26.835Z,1008.83
2019-05-03T11:12:27.181Z,1008.80
2019-05-03T11:13:26.834Z,1008.82
2019-05-03T11:14:26.803Z,1008.82
2019-05-03T11:15:26.817Z,1008.83
2019-05-03T11:16:26.780Z,1008.77
2019-05-03T11:17:26.770Z,1008.85
2019-05-03T11:18:26.759Z,1008.77
2019-05-03T11:19:26.748Z,1008.75
2019-05-03T11:20:29.241Z,1008.80
2019-05-03T11:21:30.934Z,1008.81
2019-05-03T11:22:26.717Z,1008.77
2019-05-03T11:23:26.713Z,1008.74
2019-05-03T11:24:27.503Z,1008.72
2019-05-03T11:25:26.704Z,1008.78
2019-05-03T11:26:26.674Z,1008.83
2019-05-03T11:27:26.666Z,1008.79
2019-05-03T11:28:26.673Z,1008.78
2019-05-03T11:29:26.643Z,1008.73
2019-05-03T11:30:26.651Z,1008.73
2019-05-03T11:31:26.623Z,1008.76
2019-05-03T11:32:26.611Z,1008.74
2019-05-03T11:33:26.606Z,1008.73
2019-05-03T11:34:26.589Z,1008.83
2019-05-03T11:35:26.598Z,1008.78
2019-05-03T11:36:26.568Z,1008.71
2019-05-03T11:37:26.566Z,1008.70
2019-05-03T11:38:26.554Z,1008.72
2019-05-03T11:39:26.537Z,1008.71
2019-05-03T11:40:26.546Z,1008.71
2019-05-03T11:41:32.045Z,1008.71
2019-05-03T11:42:27.503Z,1008.72
2019-05-03T11:43:26.499Z,1008.63
2019-05-03T11:44:26.485Z,1008.66
2019-05-03T11:45:26.497Z,1008.61
2019-05-03T11:46:26.462Z,1008.61
2019-05-03T11:47:27.718Z,1008.60
2019-05-03T11:48:26.446Z,1008.63
2019-05-03T11:49:26.453Z,1008.62
2019-05-03T11:50:26.449Z,1008.53
2019-05-03T11:51:26.408Z,1008.53
2019-05-03T11:52:26.411Z,1008.60
2019-05-03T11:53:26.389Z,1008.58
2019-05-03T11:54:26.401Z,1008.62
2019-05-03T11:55:26.961Z,1008.58
2019-05-03T11:56:26.402Z,1008.59
2019-05-03T11:57:26.656Z,1008.57
2019-05-03T11:58:27.336Z,1008.58
2019-05-03T11:59:26.572Z,1008.55
2019-05-03T12:00:26.806Z,1008.58
2019-05-03T12:01:26.323Z,1008.54
2019-05-03T12:02:26.300Z,1008.59
2019-05-03T12:03:26.287Z,1008.56
2019-05-03T12:04:26.294Z,1008.58
2019-05-03T12:05:26.261Z,1008.57
2019-05-03T12:06:26.272Z,1008.62